sensor_id;sensor_type;location;lat;lon;timestamp;pressure;altitude;pressure_sealevel;temperature;humidity
79463;BME280;68931;47.286;18.756;2023-04-29T15:11:44;100364.59;;;19.51;40.58
79463;BME280;68931;47.286;18.756;2023-04-29T15:12:20;100344.59;;;19.38;41.83
79463;BME280;68931;47.286;18.756;2023-04-29T15:13:17;100351.19;;;19.43;43.36
79463;BME280;68931;47.286;18.756;2023-04-29T15:14:02;100342.69;;;19.30;42.54
79463;BME280;68931;47.286;18.756;2023-04-29T15:14:33;100349.41;;;19.34;42.85
79463;BME280;68931;47.286;18.756;2023-04-29T15:15:04;100365.66;;;19.31;44.40
79463;BME280;68931;47.286;18.756;2023-04-29T15:15:35;100359.91;;;19.26;43.72
79463;BME280;68931;47.286;18.756;2023-04-29T15:16:06;100369.28;;;19.30;43.45
79463;BME280;68931;47.286;18.756;2023-04-29T15:16:37;100367.38;;;19.23;45.80
79463;BME280;68931;47.286;18.756;2023-04-29T15:17:07;100367.97;;;19.16;43.31
79463;BME280;68931;47.286;18.756;2023-04-29T15:17:38;100365.69;;;19.22;43.80
79463;BME280;68931;47.286;18.756;2023-04-29T15:18:09;100361.06;;;19.24;42.94
79463;BME280;68931;47.286;18.756;2023-04-29T15:18:39;100372.50;;;19.34;44.82
79463;BME280;68931;47.286;18.756;2023-04-29T15:19:11;100361.16;;;19.32;44.93
79463;BME280;68931;47.286;18.756;2023-04-29T15:19:41;100369.53;;;19.37;43.54
79463;BME280;68931;47.286;18.756;2023-04-29T15:20:15;100342.59;;;19.22;43.88
79463;BME280;68931;47.286;18.756;2023-04-29T15:20:46;100370.00;;;19.32;43.32
79463;BME280;68931;47.286;18.756;2023-04-29T15:21:19;100374.31;;;19.33;42.87
79463;BME280;68931;47.286;18.756;2023-04-29T15:21:52;100364.22;;;19.37;44.22
79463;BME280;68931;47.286;18.756;2023-04-29T15:22:25;100370.38;;;19.37;45.68
79463;BME280;68931;47.286;18.756;2023-04-29T15:23:05;100347.16;;;19.30;44.08
79463;BME280;68931;47.286;18.756;2023-04-29T15:23:41;100332.66;;;19.24;42.31
79463;BME280;68931;47.286;18.756;2023-04-29T15:24:21;100350.47;;;19.41;42.77
79463;BME280;68931;47.286;18.756;2023-04-29T15:24:53;100366.09;;;19.54;41.85
79463;BME280;68931;47.286;18.756;2023-04-29T15:25:23;100343.97;;;19.53;43.08
79463;BME280;68931;47.286;18.756;2023-04-29T15:25:55;100342.34;;;19.52;44.02
79463;BME280;68931;47.286;18.756;2023-04-29T15:26:26;100346.59;;;19.63;43.35
79463;BME280;68931;47.286;18.756;2023-04-29T15:27:29;100330.25;;;19.58;42.82
79463;BME280;68931;47.286;18.756;2023-04-29T15:28:01;100351.69;;;19.74;40.59
79463;BME280;68931;47.286;18.756;2023-04-29T15:28:34;100360.97;;;19.70;40.28
79463;BME280;68931;47.286;18.756;2023-04-29T15:29:07;100341.66;;;19.68;40.54
79463;BME280;68931;47.286;18.756;2023-04-29T15:29:38;100345.31;;;19.67;41.38
79463;BME280;68931;47.286;18.756;2023-04-29T15:30:09;100340.34;;;19.54;40.56
79463;BME280;68931;47.286;18.756;2023-04-29T15:30:43;100359.75;;;19.65;40.44
79463;BME280;68931;47.286;18.756;2023-04-29T15:31:16;100354.84;;;19.70;39.88
79463;BME280;68931;47.286;18.756;2023-04-29T15:31:57;100359.84;;;19.73;40.57
79463;BME280;68931;47.286;18.756;2023-04-29T15:32:33;100337.00;;;19.52;40.79
79463;BME280;68931;47.286;18.756;2023-04-29T15:33:06;100346.97;;;19.50;41.56
79463;BME280;68931;47.286;18.756;2023-04-29T15:33:37;100343.13;;;19.53;42.87
79463;BME280;68931;47.286;18.756;2023-04-29T15:34:19;100353.25;;;19.49;43.79
79463;BME280;68931;47.286;18.756;2023-04-29T15:35:55;100327.66;;;19.11;42.54
79463;BME280;68931;47.286;18.756;2023-04-29T15:36:32;100332.03;;;19.03;41.65
79463;BME280;68931;47.286;18.756;2023-04-29T15:37:22;100334.09;;;19.09;43.09
79463;BME280;68931;47.286;18.756;2023-04-29T15:37:55;100320.69;;;19.01;42.97
79463;BME280;68931;47.286;18.756;2023-04-29T15:38:29;100355.66;;;19.15;43.60
79463;BME280;68931;47.286;18.756;2023-04-29T15:39:00;100359.03;;;19.08;42.36
79463;BME280;68931;47.286;18.756;2023-04-29T15:39:31;100329.72;;;18.90;42.86
79463;BME280;68931;47.286;18.756;2023-04-29T15:40:25;100326.34;;;18.88;42.37
79463;BME280;68931;47.286;18.756;2023-04-29T15:40:59;100334.47;;;18.87;42.31
79463;BME280;68931;47.286;18.756;2023-04-29T15:41:39;100322.88;;;18.78;42.63
79463;BME280;68931;47.286;18.756;2023-04-29T15:42:25;100352.63;;;18.91;43.17
79463;BME280;68931;47.286;18.756;2023-04-29T15:42:58;100358.78;;;18.92;42.42
79463;BME280;68931;47.286;18.756;2023-04-29T15:43:32;100356.44;;;18.89;45.34
79463;BME280;68931;47.286;18.756;2023-04-29T15:44:06;100356.31;;;18.81;43.91
79463;BME280;68931;47.286;18.756;2023-04-29T15:44:55;100356.59;;;18.77;43.55
79463;BME280;68931;47.286;18.756;2023-04-29T15:45:26;100346.84;;;18.68;45.05
79463;BME280;68931;47.286;18.756;2023-04-29T15:46:03;100355.38;;;18.72;44.06
79463;BME280;68931;47.286;18.756;2023-04-29T15:46:37;100340.69;;;18.58;45.47
79463;BME280;68931;47.286;18.756;2023-04-29T15:47:07;100342.63;;;18.56;44.81
79463;BME280;68931;47.286;18.756;2023-04-29T15:47:57;100333.69;;;18.48;44.23
79463;BME280;68931;47.286;18.756;2023-04-29T15:48:31;100323.91;;;18.48;43.20
79463;BME280;68931;47.286;18.756;2023-04-29T15:49:10;100329.66;;;18.53;43.04
79463;BME280;68931;47.286;18.756;2023-04-29T15:49:47;100319.28;;;18.50;43.32
79463;BME280;68931;47.286;18.756;2023-04-29T15:50:20;100343.50;;;18.57;44.23
79463;BME280;68931;47.286;18.756;2023-04-29T15:50:54;100349.94;;;18.54;43.13
79463;BME280;68931;47.286;18.756;2023-04-29T15:51:24;100348.94;;;18.55;44.01
79463;BME280;68931;47.286;18.756;2023-04-29T15:51:58;100347.69;;;18.59;45.41
79463;BME280;68931;47.286;18.756;2023-04-29T15:52:29;100344.34;;;18.57;44.30
79463;BME280;68931;47.286;18.756;2023-04-29T15:53:00;100354.56;;;18.62;43.70
79463;BME280;68931;47.286;18.756;2023-04-29T15:53:31;100342.63;;;18.56;43.58
79463;BME280;68931;47.286;18.756;2023-04-29T15:54:02;100359.44;;;18.66;44.06
79463;BME280;68931;47.286;18.756;2023-04-29T15:54:35;100344.34;;;18.57;44.97
79463;BME280;68931;47.286;18.756;2023-04-29T15:55:06;100352.16;;;18.68;44.39
79463;BME280;68931;47.286;18.756;2023-04-29T15:55:40;100346.00;;;18.68;43.62
79463;BME280;68931;47.286;18.756;2023-04-29T15:56:11;100352.53;;;18.73;42.52
79463;BME280;68931;47.286;18.756;2023-04-29T15:56:42;100351.56;;;18.74;42.94
79463;BME280;68931;47.286;18.756;2023-04-29T15:57:13;100350.31;;;18.78;44.22
79463;BME280;68931;47.286;18.756;2023-04-29T15:57:49;100348.78;;;18.76;43.24
79463;BME280;68931;47.286;18.756;2023-04-29T15:58:20;100346.94;;;18.76;44.24
79463;BME280;68931;47.286;18.756;2023-04-29T15:58:51;100348.88;;;18.84;45.06
79463;BME280;68931;47.286;18.756;2023-04-29T15:59:22;100348.75;;;18.86;43.92
79463;BME280;68931;47.286;18.756;2023-04-29T15:59:53;100347.59;;;18.98;44.47
79463;BME280;68931;47.286;18.756;2023-04-29T16:00:24;100353.03;;;19.06;44.50
79463;BME280;68931;47.286;18.756;2023-04-29T16:00:54;100340.56;;;19.06;42.54
79463;BME280;68931;47.286;18.756;2023-04-29T16:01:25;100348.78;;;19.13;42.24
79463;BME280;68931;47.286;18.756;2023-04-29T16:01:59;100342.50;;;19.14;42.97
79463;BME280;68931;47.286;18.756;2023-04-29T16:02:30;100339.81;;;19.14;44.57
79463;BME280;68931;47.286;18.756;2023-04-29T16:03:01;100345.53;;;19.19;43.54
79463;BME280;68931;47.286;18.756;2023-04-29T16:03:34;100351.41;;;19.23;42.57
79463;BME280;68931;47.286;18.756;2023-04-29T16:04:05;100351.25;;;19.24;42.64
79463;BME280;68931;47.286;18.756;2023-04-29T16:04:36;100335.03;;;19.17;43.57
79463;BME280;68931;47.286;18.756;2023-04-29T16:05:07;100342.81;;;19.29;43.96
79463;BME280;68931;47.286;18.756;2023-04-29T16:05:38;100339.31;;;19.28;43.13
79463;BME280;68931;47.286;18.756;2023-04-29T16:06:10;100353.44;;;19.38;44.33
79463;BME280;68931;47.286;18.756;2023-04-29T16:06:40;100339.53;;;19.17;43.40
79463;BME280;68931;47.286;18.756;2023-04-29T16:07:14;100354.72;;;19.34;45.74
79463;BME280;68931;47.286;18.756;2023-04-29T16:07:45;100351.94;;;19.26;42.67
79463;BME280;68931;47.286;18.756;2023-04-29T16:08:16;100352.63;;;19.28;43.00
79463;BME280;68931;47.286;18.756;2023-04-29T16:08:46;100348.47;;;19.26;44.07
79463;BME280;68931;47.286;18.756;2023-04-29T16:09:20;100350.56;;;19.22;42.88
79463;BME280;68931;47.286;18.756;2023-04-29T16:09:53;100346.81;;;19.15;42.80
79463;BME280;68931;47.286;18.756;2023-04-29T16:10:24;100346.13;;;19.13;42.81
79463;BME280;68931;47.286;18.756;2023-04-29T16:10:55;100342.88;;;19.19;42.36
79463;BME280;68931;47.286;18.756;2023-04-29T16:11:28;100352.19;;;19.33;43.49
79463;BME280;68931;47.286;18.756;2023-04-29T16:12:02;100355.81;;;19.41;42.62
79463;BME280;68931;47.286;18.756;2023-04-29T16:12:35;100352.81;;;19.44;43.19
79463;BME280;68931;47.286;18.756;2023-04-29T16:13:12;100345.16;;;19.41;44.15
79463;BME280;68931;47.286;18.756;2023-04-29T16:13:43;100354.09;;;19.50;46.48
79463;BME280;68931;47.286;18.756;2023-04-29T16:14:14;100335.34;;;19.42;43.69
79463;BME280;68931;47.286;18.756;2023-04-29T16:14:44;100354.63;;;19.53;44.23
79463;BME280;68931;47.286;18.756;2023-04-29T16:15:18;100355.31;;;19.56;42.21
79463;BME280;68931;47.286;18.756;2023-04-29T16:15:49;100343.47;;;19.50;41.15
79463;BME280;68931;47.286;18.756;2023-04-29T16:16:20;100329.19;;;19.41;42.54
79463;BME280;68931;47.286;18.756;2023-04-29T16:16:53;100357.13;;;19.55;42.42
79463;BME280;68931;47.286;18.756;2023-04-29T16:17:24;100341.25;;;19.36;42.76
79463;BME280;68931;47.286;18.756;2023-04-29T16:17:55;100362.09;;;19.40;41.36
79463;BME280;68931;47.286;18.756;2023-04-29T16:18:25;100352.44;;;19.39;41.68
79463;BME280;68931;47.286;18.756;2023-04-29T16:18:56;100350.75;;;19.38;42.40
79463;BME280;68931;47.286;18.756;2023-04-29T16:19:27;100359.34;;;19.32;43.27
79463;BME280;68931;47.286;18.756;2023-04-29T16:20:03;100355.56;;;19.35;43.02
79463;BME280;68931;47.286;18.756;2023-04-29T16:20:37;100351.66;;;19.29;42.12
79463;BME280;68931;47.286;18.756;2023-04-29T16:21:08;100349.81;;;19.30;43.32
79463;BME280;68931;47.286;18.756;2023-04-29T16:21:43;100337.69;;;19.17;42.39
79463;BME280;68931;47.286;18.756;2023-04-29T16:22:17;100317.59;;;19.05;42.87
79463;BME280;68931;47.286;18.756;2023-04-29T16:22:50;100355.59;;;19.25;42.57
79463;BME280;68931;47.286;18.756;2023-04-29T16:23:24;100319.56;;;19.03;42.12
79463;BME280;68931;47.286;18.756;2023-04-29T16:23:55;100349.88;;;19.20;42.41
79463;BME280;68931;47.286;18.756;2023-04-29T16:24:25;100347.22;;;19.20;41.84
79463;BME280;68931;47.286;18.756;2023-04-29T16:24:56;100333.28;;;19.08;43.37
79463;BME280;68931;47.286;18.756;2023-04-29T16:25:27;100337.91;;;19.06;43.48
79463;BME280;68931;47.286;18.756;2023-04-29T16:25:59;100331.78;;;18.96;42.47
79463;BME280;68931;47.286;18.756;2023-04-29T16:26:30;100350.34;;;19.06;43.12
79463;BME280;68931;47.286;18.756;2023-04-29T16:27:01;100352.22;;;18.96;43.14
79463;BME280;68931;47.286;18.756;2023-04-29T16:27:32;100360.47;;;18.93;43.13
79463;BME280;68931;47.286;18.756;2023-04-29T16:28:05;100361.63;;;18.90;42.27
79463;BME280;68931;47.286;18.756;2023-04-29T16:28:39;100362.75;;;18.88;42.60
79463;BME280;68931;47.286;18.756;2023-04-29T16:29:10;100353.34;;;18.84;42.89
79463;BME280;68931;47.286;18.756;2023-04-29T16:29:42;100367.50;;;18.84;43.28
79463;BME280;68931;47.286;18.756;2023-04-29T16:30:13;100360.25;;;18.76;42.96
79463;BME280;68931;47.286;18.756;2023-04-29T16:30:43;100360.53;;;18.73;43.99
79463;BME280;68931;47.286;18.756;2023-04-29T16:31:15;100357.59;;;18.67;43.82
79463;BME280;68931;47.286;18.756;2023-04-29T16:31:45;100351.06;;;18.61;43.67
79463;BME280;68931;47.286;18.756;2023-04-29T16:32:16;100360.00;;;18.60;43.73
79463;BME280;68931;47.286;18.756;2023-04-29T16:32:50;100342.09;;;18.43;44.12
79463;BME280;68931;47.286;18.756;2023-04-29T16:33:21;100322.28;;;18.28;44.84
79463;BME280;68931;47.286;18.756;2023-04-29T16:33:55;100356.38;;;18.42;45.10
79463;BME280;68931;47.286;18.756;2023-04-29T16:34:26;100351.91;;;18.33;45.73
79463;BME280;68931;47.286;18.756;2023-04-29T16:34:57;100351.63;;;18.26;44.23
79463;BME280;68931;47.286;18.756;2023-04-29T16:35:30;100356.50;;;18.31;44.15
79463;BME280;68931;47.286;18.756;2023-04-29T16:36:01;100353.19;;;18.29;44.30
79463;BME280;68931;47.286;18.756;2023-04-29T16:36:34;100360.72;;;18.24;44.74
79463;BME280;68931;47.286;18.756;2023-04-29T16:37:05;100361.69;;;18.23;43.90
79463;BME280;68931;47.286;18.756;2023-04-29T16:37:45;100361.69;;;18.23;44.78
79463;BME280;68931;47.286;18.756;2023-04-29T16:38:15;100362.66;;;18.22;45.13
79463;BME280;68931;47.286;18.756;2023-04-29T16:38:47;100372.59;;;18.20;44.40
79463;BME280;68931;47.286;18.756;2023-04-29T16:39:18;100349.94;;;18.06;45.07
79463;BME280;68931;47.286;18.756;2023-04-29T16:39:48;100365.47;;;18.11;45.15
79463;BME280;68931;47.286;18.756;2023-04-29T16:40:19;100367.69;;;18.05;46.19
79463;BME280;68931;47.286;18.756;2023-04-29T16:40:50;100348.56;;;17.92;46.06
79463;BME280;68931;47.286;18.756;2023-04-29T16:41:21;100369.81;;;18.02;45.68
79463;BME280;68931;47.286;18.756;2023-04-29T16:42:01;100357.06;;;17.96;45.10
79463;BME280;68931;47.286;18.756;2023-04-29T16:42:34;100369.66;;;17.94;45.55
79463;BME280;68931;47.286;18.756;2023-04-29T16:43:05;100361.38;;;17.87;46.19
79463;BME280;68931;47.286;18.756;2023-04-29T16:43:35;100371.03;;;17.88;46.17
79463;BME280;68931;47.286;18.756;2023-04-29T16:44:09;100364.19;;;17.86;46.23
79463;BME280;68931;47.286;18.756;2023-04-29T16:44:41;100364.59;;;17.81;46.31
79463;BME280;68931;47.286;18.756;2023-04-29T16:45:11;100368.81;;;17.84;46.23
79463;BME280;68931;47.286;18.756;2023-04-29T16:45:44;100356.22;;;17.76;47.24
79463;BME280;68931;47.286;18.756;2023-04-29T16:46:14;100369.19;;;17.79;46.65
79463;BME280;68931;47.286;18.756;2023-04-29T16:46:45;100356.38;;;17.75;46.97
79463;BME280;68931;47.286;18.756;2023-04-29T16:47:16;100357.72;;;17.69;46.56
79463;BME280;68931;47.286;18.756;2023-04-29T16:47:49;100350.91;;;17.66;46.77
79463;BME280;68931;47.286;18.756;2023-04-29T16:48:20;100357.19;;;17.65;46.78
79463;BME280;68931;47.286;18.756;2023-04-29T16:48:51;100354.66;;;17.64;46.82
79463;BME280;68931;47.286;18.756;2023-04-29T16:49:26;100354.53;;;17.65;46.05
79463;BME280;68931;47.286;18.756;2023-04-29T16:49:56;100361.91;;;17.62;46.77
79463;BME280;68931;47.286;18.756;2023-04-29T16:50:27;100360.31;;;17.59;47.21
79463;BME280;68931;47.286;18.756;2023-04-29T16:50:58;100332.66;;;17.52;47.92
79463;BME280;68931;47.286;18.756;2023-04-29T16:51:34;100360.31;;;17.59;47.58
79463;BME280;68931;47.286;18.756;2023-04-29T16:52:05;100361.47;;;17.57;47.47
79463;BME280;68931;47.286;18.756;2023-04-29T16:52:41;100360.88;;;17.53;47.41
79463;BME280;68931;47.286;18.756;2023-04-29T16:53:14;100354.72;;;17.53;47.43
79463;BME280;68931;47.286;18.756;2023-04-29T16:53:45;100353.50;;;17.57;46.68
79463;BME280;68931;47.286;18.756;2023-04-29T16:54:16;100359.78;;;17.56;46.96
79463;BME280;68931;47.286;18.756;2023-04-29T16:54:47;100359.78;;;17.56;47.43
79463;BME280;68931;47.286;18.756;2023-04-29T16:55:18;100360.88;;;17.53;47.18
79463;BME280;68931;47.286;18.756;2023-04-29T16:55:51;100356.00;;;17.49;48.50
79463;BME280;68931;47.286;18.756;2023-04-29T16:56:22;100363.00;;;17.50;47.89
79463;BME280;68931;47.286;18.756;2023-04-29T16:56:53;100342.16;;;17.45;47.33
79463;BME280;68931;47.286;18.756;2023-04-29T16:57:24;100344.22;;;17.42;48.28
79463;BME280;68931;47.286;18.756;2023-04-29T16:57:55;100348.97;;;17.38;49.48
79463;BME280;68931;47.286;18.756;2023-04-29T16:58:26;100340.28;;;17.26;49.95
79463;BME280;68931;47.286;18.756;2023-04-29T16:58:58;100356.94;;;17.38;48.41
79463;BME280;68931;47.286;18.756;2023-04-29T16:59:31;100362.25;;;17.38;49.36
79463;BME280;68931;47.286;18.756;2023-04-29T17:00:02;100360.28;;;17.30;48.87
79463;BME280;68931;47.286;18.756;2023-04-29T17:00:39;100365.56;;;17.30;48.89
79463;BME280;68931;47.286;18.756;2023-04-29T17:01:10;100362.09;;;17.30;48.69
79463;BME280;68931;47.286;18.756;2023-04-29T17:01:41;100330.31;;;17.09;49.46
79463;BME280;68931;47.286;18.756;2023-04-29T17:02:12;100365.13;;;17.25;49.82
79463;BME280;68931;47.286;18.756;2023-04-29T17:02:48;100363.44;;;17.24;48.96
79463;BME280;68931;47.286;18.756;2023-04-29T17:03:22;100349.47;;;17.13;48.47
79463;BME280;68931;47.286;18.756;2023-04-29T17:03:54;100364.69;;;17.20;48.82
79463;BME280;68931;47.286;18.756;2023-04-29T17:04:25;100353.22;;;17.10;48.96
79463;BME280;68931;47.286;18.756;2023-04-29T17:04:55;100370.00;;;17.20;49.07
79463;BME280;68931;47.286;18.756;2023-04-29T17:05:26;100370.00;;;17.20;49.22
79463;BME280;68931;47.286;18.756;2023-04-29T17:05:57;100368.44;;;17.18;49.53
79463;BME280;68931;47.286;18.756;2023-04-29T17:06:31;100367.03;;;17.14;49.69
79463;BME280;68931;47.286;18.756;2023-04-29T17:07:02;100366.34;;;17.12;50.11
79463;BME280;68931;47.286;18.756;2023-04-29T17:07:34;100366.47;;;17.10;49.54
79463;BME280;68931;47.286;18.756;2023-04-29T17:08:05;100366.72;;;17.07;49.95
79463;BME280;68931;47.286;18.756;2023-04-29T17:08:35;100364.78;;;17.09;49.80
79463;BME280;68931;47.286;18.756;2023-04-29T17:09:06;100364.06;;;17.07;49.79
79463;BME280;68931;47.286;18.756;2023-04-29T17:09:37;100369.53;;;17.06;49.16
79463;BME280;68931;47.286;18.756;2023-04-29T17:10:08;100365.31;;;17.03;50.35
79463;BME280;68931;47.286;18.756;2023-04-29T17:10:39;100374.38;;;17.01;50.94
79463;BME280;68931;47.286;18.756;2023-04-29T17:11:10;100373.09;;;16.95;50.83
79463;BME280;68931;47.286;18.756;2023-04-29T17:11:43;100364.84;;;16.88;50.90
79463;BME280;68931;47.286;18.756;2023-04-29T17:12:14;100368.88;;;16.92;51.86
79463;BME280;68931;47.286;18.756;2023-04-29T17:12:45;100366.38;;;16.91;51.17
79463;BME280;68931;47.286;18.756;2023-04-29T17:13:15;100375.56;;;16.87;51.72
79463;BME280;68931;47.286;18.756;2023-04-29T17:13:49;100366.91;;;16.85;51.79
79463;BME280;68931;47.286;18.756;2023-04-29T17:14:20;100364.19;;;16.75;52.49
79463;BME280;68931;47.286;18.756;2023-04-29T17:14:50;100374.53;;;16.78;50.79
79463;BME280;68931;47.286;18.756;2023-04-29T17:15:21;100366.84;;;16.75;51.60
79463;BME280;68931;47.286;18.756;2023-04-29T17:15:52;100370.88;;;16.70;52.00
79463;BME280;68931;47.286;18.756;2023-04-29T17:16:23;100378.81;;;16.70;53.16
79463;BME280;68931;47.286;18.756;2023-04-29T17:16:55;100380.03;;;16.66;53.74
79463;BME280;68931;47.286;18.756;2023-04-29T17:17:26;100372.31;;;16.63;54.32
79463;BME280;68931;47.286;18.756;2023-04-29T17:17:56;100374.25;;;16.61;54.80
79463;BME280;68931;47.286;18.756;2023-04-29T17:18:27;100386.06;;;16.56;53.47
79463;BME280;68931;47.286;18.756;2023-04-29T17:18:58;100369.13;;;16.48;54.02
79463;BME280;68931;47.286;18.756;2023-04-29T17:19:29;100379.72;;;16.48;55.14
79463;BME280;68931;47.286;18.756;2023-04-29T17:19:59;100377.94;;;16.48;54.91
79463;BME280;68931;47.286;18.756;2023-04-29T17:20:30;100384.59;;;16.43;56.67
79463;BME280;68931;47.286;18.756;2023-04-29T17:21:19;100358.53;;;16.27;56.40
79463;BME280;68931;47.286;18.756;2023-04-29T17:21:57;100366.63;;;16.26;56.93
79463;BME280;68931;47.286;18.756;2023-04-29T17:22:36;100368.56;;;16.24;55.63
79463;BME280;68931;47.286;18.756;2023-04-29T17:23:10;100343.22;;;16.10;55.98
79463;BME280;68931;47.286;18.756;2023-04-29T17:24:02;100339.16;;;16.06;54.17
79463;BME280;68931;47.286;18.756;2023-04-29T17:24:53;100360.78;;;16.11;55.59
79463;BME280;68931;47.286;18.756;2023-04-29T17:25:27;100383.16;;;16.18;54.90
79463;BME280;68931;47.286;18.756;2023-04-29T17:26:03;100351.47;;;15.96;55.95
79463;BME280;68931;47.286;18.756;2023-04-29T17:26:40;100346.56;;;15.91;56.97
79463;BME280;68931;47.286;18.756;2023-04-29T17:27:32;100340.91;;;15.85;54.28
79463;BME280;68931;47.286;18.756;2023-04-29T17:28:04;100349.44;;;15.88;53.99
79463;BME280;68931;47.286;18.756;2023-04-29T17:28:36;100357.25;;;15.90;54.41
79463;BME280;68931;47.286;18.756;2023-04-29T17:29:06;100361.94;;;15.86;55.85
79463;BME280;68931;47.286;18.756;2023-04-29T17:29:41;100348.75;;;15.75;55.75
79463;BME280;68931;47.286;18.756;2023-04-29T17:30:24;100369.78;;;15.88;53.02
79463;BME280;68931;47.286;18.756;2023-04-29T17:31:04;100349.38;;;15.67;56.23
79463;BME280;68931;47.286;18.756;2023-04-29T17:31:47;100358.88;;;15.70;55.80
79463;BME280;68931;47.286;18.756;2023-04-29T17:32:27;100353.25;;;15.63;55.04
79463;BME280;68931;47.286;18.756;2023-04-29T17:33:07;100372.94;;;15.70;54.53
79463;BME280;68931;47.286;18.756;2023-04-29T17:33:41;100353.34;;;15.51;54.61
79463;BME280;68931;47.286;18.756;2023-04-29T17:34:24;100375.72;;;15.58;56.01
79463;BME280;68931;47.286;18.756;2023-04-29T17:35:08;100376.94;;;15.54;55.82
79463;BME280;68931;47.286;18.756;2023-04-29T17:35:42;100370.44;;;15.47;56.10
79463;BME280;68931;47.286;18.756;2023-04-29T17:36:14;100388.09;;;15.57;55.70
79463;BME280;68931;47.286;18.756;2023-04-29T17:36:45;100380.16;;;15.46;55.75
79463;BME280;68931;47.286;18.756;2023-04-29T17:37:17;100367.69;;;15.37;55.99
79463;BME280;68931;47.286;18.756;2023-04-29T17:37:57;100352.19;;;15.21;56.01
79463;BME280;68931;47.286;18.756;2023-04-29T17:38:31;100374.44;;;15.30;57.29
79463;BME280;68931;47.286;18.756;2023-04-29T17:39:14;100378.97;;;15.28;57.77
79463;BME280;68931;47.286;18.756;2023-04-29T17:39:45;100377.41;;;15.25;59.06
79463;BME280;68931;47.286;18.756;2023-04-29T17:40:16;100354.84;;;15.10;59.21
79463;BME280;68931;47.286;18.756;2023-04-29T17:40:50;100375.38;;;15.18;59.01
79463;BME280;68931;47.286;18.756;2023-04-29T17:41:21;100389.53;;;15.17;59.38
79463;BME280;68931;47.286;18.756;2023-04-29T17:41:52;100380.88;;;15.15;60.51
79463;BME280;68931;47.286;18.756;2023-04-29T17:42:22;100374.53;;;15.06;59.51
79463;BME280;68931;47.286;18.756;2023-04-29T17:42:53;100397.97;;;15.11;59.36
79463;BME280;68931;47.286;18.756;2023-04-29T17:43:24;100391.94;;;15.09;59.12
79463;BME280;68931;47.286;18.756;2023-04-29T17:43:56;100391.47;;;15.03;59.40
79463;BME280;68931;47.286;18.756;2023-04-29T17:44:27;100386.53;;;14.99;60.00
79463;BME280;68931;47.286;18.756;2023-04-29T17:44:58;100396.25;;;14.98;59.10
79463;BME280;68931;47.286;18.756;2023-04-29T17:45:31;100392.03;;;14.96;61.23
79463;BME280;68931;47.286;18.756;2023-04-29T17:46:02;100396.13;;;14.89;60.22
79463;BME280;68931;47.286;18.756;2023-04-29T17:46:37;100391.31;;;14.83;61.59
79463;BME280;68931;47.286;18.756;2023-04-29T17:47:10;100402.00;;;14.81;61.25
79463;BME280;68931;47.286;18.756;2023-04-29T17:47:42;100388.91;;;14.68;60.92
79463;BME280;68931;47.286;18.756;2023-04-29T17:48:13;100395.25;;;14.66;60.29
79463;BME280;68931;47.286;18.756;2023-04-29T17:48:47;100390.44;;;14.60;60.77
79463;BME280;68931;47.286;18.756;2023-04-29T17:49:18;100398.38;;;14.60;60.84
79463;BME280;68931;47.286;18.756;2023-04-29T17:49:52;100392.47;;;14.56;61.26
79463;BME280;68931;47.286;18.756;2023-04-29T17:50:22;100376.59;;;14.45;61.53
79463;BME280;68931;47.286;18.756;2023-04-29T17:50:56;100387.88;;;14.47;62.18
79463;BME280;68931;47.286;18.756;2023-04-29T17:51:27;100398.56;;;14.46;61.89
79463;BME280;68931;47.286;18.756;2023-04-29T17:52:04;100388.66;;;14.37;62.17
79463;BME280;68931;47.286;18.756;2023-04-29T17:52:38;100365.31;;;14.19;61.50
79463;BME280;68931;47.286;18.756;2023-04-29T17:53:12;100398.72;;;14.31;62.07
79463;BME280;68931;47.286;18.756;2023-04-29T17:53:43;100394.84;;;14.24;62.03
79463;BME280;68931;47.286;18.756;2023-04-29T17:54:14;100408.06;;;14.24;61.87
79463;BME280;68931;47.286;18.756;2023-04-29T17:54:50;100401.88;;;14.13;63.33
79463;BME280;68931;47.286;18.756;2023-04-29T17:55:21;100363.03;;;13.91;63.76
79463;BME280;68931;47.286;18.756;2023-04-29T17:55:51;100364.97;;;13.89;63.82
79463;BME280;68931;47.286;18.756;2023-04-29T17:56:22;100386.84;;;14.02;63.30
79463;BME280;68931;47.286;18.756;2023-04-29T17:56:55;100376.09;;;13.92;64.46
79463;BME280;68931;47.286;18.756;2023-04-29T17:57:26;100379.81;;;13.90;64.37
79463;BME280;68931;47.286;18.756;2023-04-29T17:58:00;100371.50;;;13.83;64.60
79463;BME280;68931;47.286;18.756;2023-04-29T17:58:31;100415.13;;;14.00;64.40
79463;BME280;68931;47.286;18.756;2023-04-29T17:59:03;100405.50;;;13.99;64.82
79463;BME280;68931;47.286;18.756;2023-04-29T17:59:40;100407.53;;;13.96;65.19
79463;BME280;68931;47.286;18.756;2023-04-29T18:00:14;100389.38;;;13.80;65.26
79463;BME280;68931;47.286;18.756;2023-04-29T18:00:45;100395.25;;;13.83;65.28
79463;BME280;68931;47.286;18.756;2023-04-29T18:01:16;100402.41;;;13.81;65.33
79463;BME280;68931;47.286;18.756;2023-04-29T18:01:47;100404.72;;;13.86;65.05
79463;BME280;68931;47.286;18.756;2023-04-29T18:02:26;100416.22;;;13.85;65.02
79463;BME280;68931;47.286;18.756;2023-04-29T18:02:57;100397.69;;;13.74;64.93
79463;BME280;68931;47.286;18.756;2023-04-29T18:03:28;100415.00;;;13.78;65.08
79463;BME280;68931;47.286;18.756;2023-04-29T18:04:00;100410.19;;;13.72;65.29
79463;BME280;68931;47.286;18.756;2023-04-29T18:04:31;100406.91;;;13.68;65.25